Time;durP1;ratioP1;P1;durP2;ratioP2;P2;SDS_P1;SDS_P2;PMS_P1;PMS_P2;Temp;Humidity;BMP_temperature;BMP_pressure;BME280_temperature;BME280_humidity;BME280_pressure;Samples;Min_cycle;Max_cycle;Signal;HPM_P1;HPM_P2
2022/08/09 00:01:27;;;;;;;2.50;2.30;;;;;;;;;;5071599;28;20448;-75
2022/08/09 00:03:55;;;;;;;3.00;2.70;;;;;;;;;;5071024;28;20514;-75
2022/08/09 00:06:23;;;;;;;2.77;2.47;;;;;;;;;;5071543;28;20441;-76
2022/08/09 00:08:50;;;;;;;4.30;2.60;;;;;;;;;;5071169;28;20441;-76
2022/08/09 00:11:17;;;;;;;3.17;2.50;;;;;;;;;;5087256;28;20444;-75
2022/08/09 00:13:44;;;;;;;3.93;2.93;;;;;;;;;;5091569;28;20446;-76
2022/08/09 00:16:12;;;;;;;3.77;3.07;;;;;;;;;;5091087;28;20491;-74
2022/08/09 00:18:39;;;;;;;3.03;2.77;;;;;;;;;;5090652;28;20953;-75
2022/08/09 00:21:08;;;;;;;3.60;2.73;;;;;;;;;;5090736;28;20509;-75
2022/08/09 00:23:35;;;;;;;4.30;3.20;;;;;;;;;;5090503;28;20448;-76
2022/08/09 00:26:02;;;;;;;2.97;2.70;;;;;;;;;;5090538;28;20833;-75
2022/08/09 00:28:29;;;;;;;3.03;2.80;;;;;;;;;;5090449;28;20476;-76
2022/08/09 00:30:57;;;;;;;4.70;2.87;;;;;;;;;;5090843;28;20493;-75
2022/08/09 00:33:25;;;;;;;3.23;2.93;;;;;;;;;;5090316;28;20454;-75
2022/08/09 00:35:52;;;;;;;3.43;3.13;;;;;;;;;;5090465;28;20479;-75
2022/08/09 00:38:20;;;;;;;3.43;3.17;;;;;;;;;;5090323;28;20470;-75
2022/08/09 00:40:47;;;;;;;5.20;3.60;;;;;;;;;;5090575;28;20512;-75
2022/08/09 00:43:14;;;;;;;3.27;3.00;;;;;;;;;;5090412;28;20448;-75
2022/08/09 00:45:41;;;;;;;3.70;3.40;;;;;;;;;;5090367;28;20460;-75
2022/08/09 00:48:08;;;;;;;3.33;2.87;;;;;;;;;;5090609;28;20443;-75
2022/08/09 00:50:35;;;;;;;4.50;3.40;;;;;;;;;;5092765;28;20474;-75
2022/08/09 00:53:02;;;;;;;6.17;3.33;;;;;;;;;;5091155;28;20494;-76
2022/08/09 00:55:31;;;;;;;4.80;3.23;;;;;;;;;;5090417;28;20544;-75
2022/08/09 00:57:58;;;;;;;4.77;3.27;;;;;;;;;;5090614;28;20447;-76
2022/08/09 01:00:25;;;;;;;3.87;3.07;;;;;;;;;;5090320;28;20452;-74
2022/08/09 01:02:54;;;;;;;3.27;3.00;;;;;;;;;;5089865;28;21083;-75
2022/08/09 01:05:24;;;;;;;8.23;3.40;;;;;;;;;;5090063;28;20539;-76
2022/08/09 01:07:53;;;;;;;3.13;2.90;;;;;;;;;;5090485;28;20995;-76
2022/08/09 01:10:23;;;;;;;5.00;3.27;;;;;;;;;;5082184;28;20494;-75
2022/08/09 01:12:53;;;;;;;4.93;3.70;;;;;;;;;;5071100;28;20931;-77
2022/08/09 01:15:22;;;;;;;7.47;3.93;;;;;;;;;;5071110;28;20476;-75
2022/08/09 01:17:52;;;;;;;5.33;3.30;;;;;;;;;;5069785;28;20448;-76
2022/08/09 01:20:22;;;;;;;4.33;3.40;;;;;;;;;;5070014;28;20437;-75
2022/08/09 01:23:00;;;;;;;3.37;3.17;;;;;;;;;;5069725;28;20475;-75
2022/08/09 01:25:33;;;;;;;3.10;2.90;;;;;;;;;;5069951;28;20514;-76
2022/08/09 01:28:03;;;;;;;4.33;2.93;;;;;;;;;;5069973;28;20510;-75
2022/08/09 01:30:31;;;;;;;4.77;2.97;;;;;;;;;;5069680;28;20868;-76
2022/08/09 01:32:59;;;;;;;8.00;3.43;;;;;;;;;;5069449;28;20479;-75
2022/08/09 01:35:30;;;;;;;5.97;3.37;;;;;;;;;;5069846;28;20534;-76
2022/08/09 01:38:00;;;;;;;3.87;3.20;;;;;;;;;;5069704;28;20486;-75
2022/08/09 01:40:28;;;;;;;5.00;3.50;;;;;;;;;;5069595;28;20897;-75
2022/08/09 01:42:56;;;;;;;3.37;3.07;;;;;;;;;;5073082;28;20456;-75
2022/08/09 01:45:25;;;;;;;3.50;3.10;;;;;;;;;;5073523;28;20452;-76
2022/08/09 01:47:52;;;;;;;3.63;2.97;;;;;;;;;;5073445;28;20928;-75
2022/08/09 01:50:22;;;;;;;7.73;3.57;;;;;;;;;;5073635;28;20445;-75
2022/08/09 01:52:49;;;;;;;4.20;3.13;;;;;;;;;;5073164;28;20449;-75
2022/08/09 01:55:16;;;;;;;5.30;3.40;;;;;;;;;;5073033;28;20522;-75
2022/08/09 01:57:48;;;;;;;6.77;4.03;;;;;;;;;;5072908;28;20525;-76
2022/08/09 02:00:15;;;;;;;3.20;2.90;;;;;;;;;;5072979;28;20934;-75
2022/08/09 02:02:44;;;;;;;3.27;3.07;;;;;;;;;;5072684;28;20453;-74
2022/08/09 02:05:12;;;;;;;3.50;3.20;;;;;;;;;;5073068;28;20465;-75
2022/08/09 02:07:42;;;;;;;3.60;3.30;;;;;;;;;;5072874;28;20486;-75
2022/08/09 02:10:11;;;;;;;3.63;3.33;;;;;;;;;;5079272;28;20448;-74
2022/08/09 02:12:39;;;;;;;3.60;3.30;;;;;;;;;;5093019;28;20817;-75
2022/08/09 02:15:08;;;;;;;3.90;3.00;;;;;;;;;;5093232;28;20484;-74
2022/08/09 02:17:35;;;;;;;4.20;3.23;;;;;;;;;;5093124;28;20444;-76
2022/08/09 02:20:04;;;;;;;4.30;3.90;;;;;;;;;;5092936;28;20443;-75
2022/08/09 02:22:32;;;;;;;3.43;3.13;;;;;;;;;;5092520;28;20909;-74
2022/08/09 02:25:01;;;;;;;3.37;3.07;;;;;;;;;;5092932;28;20459;-75
2022/08/09 02:27:29;;;;;;;3.47;3.20;;;;;;;;;;5093082;28;20518;-76
2022/08/09 02:29:57;;;;;;;3.50;3.20;;;;;;;;;;5092963;28;20530;-75
2022/08/09 02:32:27;;;;;;;3.80;3.10;;;;;;;;;;5092637;28;20444;-75
2022/08/09 02:34:57;;;;;;;4.70;3.33;;;;;;;;;;5092393;28;21037;-75
2022/08/09 02:37:28;;;;;;;4.27;3.40;;;;;;;;;;5092915;28;20540;-75
2022/08/09 02:39:57;;;;;;;3.60;3.40;;;;;;;;;;5092765;28;20475;-75
2022/08/09 02:42:26;;;;;;;3.43;3.23;;;;;;;;;;5092489;28;20550;-75
2022/08/09 02:44:55;;;;;;;3.73;3.37;;;;;;;;;;5091973;28;21052;-75
2022/08/09 02:47:23;;;;;;;3.10;2.90;;;;;;;;;;5092693;28;20485;-76
2022/08/09 02:49:52;;;;;;;3.93;3.20;;;;;;;;;;5092276;28;20509;-75
2022/08/09 02:52:20;;;;;;;2.80;2.60;;;;;;;;;;5092125;28;20455;-75
2022/08/09 02:54:49;;;;;;;3.60;2.70;;;;;;;;;;5091909;28;20956;-75
2022/08/09 02:57:16;;;;;;;3.20;2.87;;;;;;;;;;5092253;28;20480;-76
2022/08/09 02:59:44;;;;;;;3.30;3.10;;;;;;;;;;5092169;28;20493;-75
2022/08/09 03:02:13;;;;;;;3.30;3.00;;;;;;;;;;5092402;28;20805;-74
2022/08/09 03:04:40;;;;;;;3.43;3.23;;;;;;;;;;5091720;28;21064;-75
2022/08/09 03:07:08;;;;;;;3.40;3.07;;;;;;;;;;5092160;28;20436;-75
2022/08/09 03:09:36;;;;;;;3.50;3.20;;;;;;;;;;5089857;28;20505;-75
2022/08/09 03:12:05;;;;;;;6.07;3.20;;;;;;;;;;5071716;28;20445;-75
2022/08/09 03:14:33;;;;;;;3.17;2.90;;;;;;;;;;5071210;28;20909;-76
2022/08/09 03:17:00;;;;;;;3.40;3.17;;;;;;;;;;5071927;28;20476;-74
2022/08/09 03:19:28;;;;;;;4.30;3.33;;;;;;;;;;5071529;28;20852;-76
2022/08/09 03:21:56;;;;;;;4.10;3.70;;;;;;;;;;5071632;28;20461;-75
2022/08/09 03:24:23;;;;;;;3.60;3.27;;;;;;;;;;5071375;28;20534;-75
2022/08/09 03:26:50;;;;;;;3.23;2.93;;;;;;;;;;5071683;28;20505;-75
2022/08/09 03:29:19;;;;;;;3.43;3.20;;;;;;;;;;5071475;28;21022;-74
2022/08/09 03:31:47;;;;;;;3.67;3.37;;;;;;;;;;5073469;28;20455;-75
2022/08/09 03:34:14;;;;;;;3.30;3.10;;;;;;;;;;5077678;28;20510;-75
2022/08/09 03:36:41;;;;;;;3.80;3.50;;;;;;;;;;5072805;28;20480;-75
2022/08/09 03:39:08;;;;;;;4.27;3.60;;;;;;;;;;5071521;28;20498;-74
2022/08/09 03:41:35;;;;;;;3.57;3.23;;;;;;;;;;5071300;28;20448;-75
2022/08/09 03:44:02;;;;;;;3.40;2.90;;;;;;;;;;5070665;28;20560;-75
2022/08/09 03:46:31;;;;;;;3.37;3.17;;;;;;;;;;5071635;28;20502;-74
2022/08/09 03:48:59;;;;;;;5.10;3.50;;;;;;;;;;5071932;28;20988;-75
2022/08/09 03:51:27;;;;;;;3.40;3.10;;;;;;;;;;5071941;28;20475;-75
2022/08/09 03:53:55;;;;;;;3.20;2.90;;;;;;;;;;5071085;28;20445;-75
2022/08/09 03:56:22;;;;;;;5.40;3.60;;;;;;;;;;5071425;28;20488;-75
2022/08/09 03:58:50;;;;;;;3.50;3.30;;;;;;;;;;5072158;28;20502;-74
2022/08/09 04:01:17;;;;;;;3.73;3.27;;;;;;;;;;5071672;28;20440;-76
2022/08/09 04:03:45;;;;;;;4.57;4.07;;;;;;;;;;5070302;28;20464;-75
2022/08/09 04:06:12;;;;;;;4.30;3.90;;;;;;;;;;5071215;28;20541;-75
2022/08/09 04:08:39;;;;;;;4.47;3.30;;;;;;;;;;5070857;28;20441;-76
2022/08/09 04:11:06;;;;;;;3.80;3.50;;;;;;;;;;5085091;28;20935;-75
2022/08/09 04:13:33;;;;;;;5.40;4.40;;;;;;;;;;5090631;28;20465;-75
2022/08/09 04:16:00;;;;;;;5.10;4.03;;;;;;;;;;5090991;28;20844;-75
2022/08/09 04:18:27;;;;;;;5.13;3.20;;;;;;;;;;5091046;28;20477;-75
2022/08/09 04:20:56;;;;;;;6.33;3.70;;;;;;;;;;5093117;28;20923;-75
2022/08/09 04:23:23;;;;;;;4.83;3.30;;;;;;;;;;5093137;28;20501;-75
2022/08/09 04:25:50;;;;;;;3.57;3.27;;;;;;;;;;5090725;28;20517;-75
2022/08/09 04:28:20;;;;;;;3.90;3.60;;;;;;;;;;5090998;28;20447;-75
2022/08/09 04:30:47;;;;;;;3.90;3.60;;;;;;;;;;5090603;28;20446;-75
2022/08/09 04:33:14;;;;;;;4.20;3.90;;;;;;;;;;5090418;28;20505;-74
2022/08/09 04:35:41;;;;;;;4.23;3.93;;;;;;;;;;5087257;28;20472;-75
2022/08/09 04:38:09;;;;;;;5.60;4.17;;;;;;;;;;5089794;28;20507;-74
2022/08/09 04:40:48;;;;;;;5.90;3.63;;;;;;;;;;5090680;28;20477;-74
2022/08/09 04:43:15;;;;;;;4.07;3.67;;;;;;;;;;5082704;28;20722;-75
2022/08/09 04:45:43;;;;;;;6.00;4.23;;;;;;;;;;5090426;28;20509;-75
2022/08/09 04:48:11;;;;;;;3.77;3.47;;;;;;;;;;5090674;28;20589;-75
2022/08/09 04:50:39;;;;;;;3.90;3.60;;;;;;;;;;5090697;28;20444;-76
2022/08/09 04:53:06;;;;;;;4.27;3.93;;;;;;;;;;5090306;28;20458;-74
2022/08/09 04:55:35;;;;;;;4.47;4.07;;;;;;;;;;5090421;28;20463;-75
2022/08/09 04:58:02;;;;;;;4.73;3.93;;;;;;;;;;5090259;28;21022;-76
2022/08/09 05:00:29;;;;;;;7.33;4.23;;;;;;;;;;5090476;28;20965;-75
2022/08/09 05:02:57;;;;;;;4.70;4.30;;;;;;;;;;5089632;28;20443;-75
2022/08/09 05:05:24;;;;;;;4.20;3.90;;;;;;;;;;5090353;28;20546;-75
2022/08/09 05:07:51;;;;;;;6.00;4.33;;;;;;;;;;5090147;28;20451;-74
2022/08/09 05:10:18;;;;;;;4.83;4.50;;;;;;;;;;5090140;28;20443;-75
2022/08/09 05:12:46;;;;;;;8.33;4.30;;;;;;;;;;5090018;28;20447;-75
2022/08/09 05:15:13;;;;;;;4.27;3.97;;;;;;;;;;5089983;28;20975;-74
2022/08/09 05:17:41;;;;;;;7.10;4.97;;;;;;;;;;5093439;28;20982;-75
2022/08/09 05:20:09;;;;;;;5.20;4.70;;;;;;;;;;5094308;28;20444;-74
2022/08/09 05:22:36;;;;;;;4.57;4.17;;;;;;;;;;5093970;28;20746;-74
2022/08/09 05:25:03;;;;;;;5.30;4.80;;;;;;;;;;5094379;28;20463;-75
2022/08/09 05:27:30;;;;;;;5.93;5.00;;;;;;;;;;5094190;28;20439;-75
2022/08/09 05:29:58;;;;;;;5.43;4.87;;;;;;;;;;5094497;28;20837;-75
2022/08/09 05:32:25;;;;;;;5.43;4.53;;;;;;;;;;5094363;28;20832;-75
2022/08/09 05:34:52;;;;;;;5.93;5.40;;;;;;;;;;5093888;28;20455;-75
2022/08/09 05:37:19;;;;;;;7.13;4.50;;;;;;;;;;5094178;28;20548;-76
2022/08/09 05:39:46;;;;;;;5.73;5.20;;;;;;;;;;5090814;28;20448;-75
2022/08/09 05:42:14;;;;;;;5.10;4.70;;;;;;;;;;5089884;28;20512;-75
2022/08/09 05:44:41;;;;;;;5.83;5.10;;;;;;;;;;5093273;28;20546;-74
2022/08/09 05:47:09;;;;;;;5.33;4.83;;;;;;;;;;5093924;28;20863;-74
2022/08/09 05:49:36;;;;;;;5.43;4.93;;;;;;;;;;5094027;28;20435;-75
2022/08/09 05:52:03;;;;;;;6.60;5.03;;;;;;;;;;5093623;28;20456;-75
2022/08/09 05:54:30;;;;;;;5.10;4.70;;;;;;;;;;5093055;28;20516;-75
2022/08/09 05:56:58;;;;;;;7.40;5.00;;;;;;;;;;5093344;28;20479;-76
2022/08/09 05:59:25;;;;;;;5.00;4.60;;;;;;;;;;5093589;28;20444;-76
2022/08/09 06:01:52;;;;;;;5.50;5.00;;;;;;;;;;5093575;28;20443;-76
2022/08/09 06:04:20;;;;;;;5.90;5.40;;;;;;;;;;5093122;28;21190;-75
2022/08/09 06:06:47;;;;;;;6.50;5.73;;;;;;;;;;5093632;28;20493;-76
2022/08/09 06:09:14;;;;;;;7.83;7.13;;;;;;;;;;5093114;28;20977;-75
2022/08/09 06:11:41;;;;;;;10.10;7.67;;;;;;;;;;5093395;28;20493;-75
2022/08/09 06:14:08;;;;;;;8.73;7.33;;;;;;;;;;5092830;28;20520;-76
2022/08/09 06:16:35;;;;;;;7.37;6.70;;;;;;;;;;5093459;28;20471;-76
2022/08/09 06:19:02;;;;;;;10.63;8.57;;;;;;;;;;5093210;28;20478;-76
2022/08/09 06:21:31;;;;;;;7.73;7.03;;;;;;;;;;5093173;28;20443;-76
2022/08/09 06:23:58;;;;;;;9.37;7.03;;;;;;;;;;5092514;28;20943;-75
2022/08/09 06:26:25;;;;;;;9.07;7.10;;;;;;;;;;5092572;28;20444;-75
2022/08/09 06:28:53;;;;;;;7.00;6.30;;;;;;;;;;5092739;28;20447;-75
2022/08/09 06:31:20;;;;;;;7.30;6.70;;;;;;;;;;5092981;28;20443;-74
2022/08/09 06:33:47;;;;;;;8.90;6.40;;;;;;;;;;5092841;28;20456;-75
2022/08/09 06:36:14;;;;;;;11.73;6.77;;;;;;;;;;5092886;28;20485;-75
2022/08/09 06:38:44;;;;;;;8.40;6.60;;;;;;;;;;5092519;28;20550;-75
2022/08/09 06:41:11;;;;;;;8.33;6.20;;;;;;;;;;5093006;28;20459;-76
2022/08/09 06:43:38;;;;;;;5.70;5.30;;;;;;;;;;5092068;28;20939;-75
2022/08/09 06:46:05;;;;;;;6.40;5.80;;;;;;;;;;5092952;28;20467;-75
2022/08/09 06:48:32;;;;;;;8.40;6.07;;;;;;;;;;5092312;28;20489;-75
2022/08/09 06:50:59;;;;;;;7.47;5.50;;;;;;;;;;5077680;28;20464;-75
2022/08/09 06:53:26;;;;;;;7.13;6.53;;;;;;;;;;5093176;28;20919;-76
2022/08/09 06:55:55;;;;;;;7.17;5.40;;;;;;;;;;5093711;28;20463;-76
2022/08/09 06:58:22;;;;;;;6.50;6.00;;;;;;;;;;5093682;28;20889;-75
2022/08/09 07:00:49;;;;;;;6.37;5.87;;;;;;;;;;5094022;28;20477;-75
2022/08/09 07:03:16;;;;;;;7.67;5.80;;;;;;;;;;5099815;28;20452;-75
2022/08/09 07:05:43;;;;;;;11.20;6.43;;;;;;;;;;5103665;28;20470;-76
2022/08/09 07:08:10;;;;;;;7.07;6.47;;;;;;;;;;5102387;28;20436;-76
2022/08/09 07:10:37;;;;;;;6.20;5.70;;;;;;;;;;5094376;28;20493;-76
2022/08/09 07:13:05;;;;;;;6.87;6.23;;;;;;;;;;5093355;28;20443;-75
2022/08/09 07:15:32;;;;;;;6.50;6.10;;;;;;;;;;5093697;28;20455;-76
2022/08/09 07:17:59;;;;;;;9.67;5.40;;;;;;;;;;5093657;28;20471;-77
2022/08/09 07:20:26;;;;;;;6.97;5.30;;;;;;;;;;5093576;28;20450;-76
2022/08/09 07:22:54;;;;;;;7.40;5.90;;;;;;;;;;5093948;28;20493;-75
2022/08/09 07:25:21;;;;;;;6.00;5.00;;;;;;;;;;5096115;28;20517;-75
2022/08/09 07:27:48;;;;;;;6.60;5.97;;;;;;;;;;5094267;28;20881;-76
2022/08/09 07:30:16;;;;;;;5.43;4.37;;;;;;;;;;5093200;28;20560;-76
2022/08/09 07:32:43;;;;;;;5.10;4.70;;;;;;;;;;5092393;28;20437;-75
2022/08/09 07:35:12;;;;;;;5.97;5.10;;;;;;;;;;5092548;28;20462;-75
2022/08/09 07:37:40;;;;;;;5.10;4.80;;;;;;;;;;5095328;28;20468;-76
2022/08/09 07:40:08;;;;;;;4.53;4.17;;;;;;;;;;5093680;28;20955;-76
2022/08/09 07:42:35;;;;;;;5.53;5.03;;;;;;;;;;5092533;28;20447;-75
2022/08/09 07:45:02;;;;;;;5.10;4.80;;;;;;;;;;5092566;28;20464;-76
2022/08/09 07:47:30;;;;;;;5.00;4.60;;;;;;;;;;5092890;28;20443;-75
2022/08/09 07:49:57;;;;;;;4.83;4.43;;;;;;;;;;5092939;28;20458;-75
2022/08/09 07:52:24;;;;;;;4.70;4.30;;;;;;;;;;5092385;28;20898;-74
2022/08/09 07:54:51;;;;;;;4.50;4.10;;;;;;;;;;5092333;28;20464;-75
2022/08/09 07:57:19;;;;;;;4.23;3.83;;;;;;;;;;5090417;28;20464;-75
2022/08/09 07:59:46;;;;;;;4.00;3.70;;;;;;;;;;5090061;28;20451;-76
2022/08/09 08:02:13;;;;;;;4.77;4.07;;;;;;;;;;5092609;28;20489;-75
2022/08/09 08:04:42;;;;;;;4.10;3.80;;;;;;;;;;5092167;28;20497;-76
2022/08/09 08:07:09;;;;;;;4.40;4.00;;;;;;;;;;5092722;28;20452;-76
2022/08/09 08:09:36;;;;;;;3.57;3.37;;;;;;;;;;5100770;28;20452;-76
2022/08/09 08:12:03;;;;;;;4.50;4.10;;;;;;;;;;5097236;28;20505;-76
2022/08/09 08:14:30;;;;;;;4.50;3.73;;;;;;;;;;5091800;28;20467;-76
2022/08/09 08:16:57;;;;;;;3.47;3.33;;;;;;;;;;5092209;28;20501;-76
2022/08/09 08:19:24;;;;;;;4.53;4.13;;;;;;;;;;5092601;28;20492;-77
2022/08/09 08:21:53;;;;;;;4.10;3.83;;;;;;;;;;5091999;28;20985;-75
2022/08/09 08:24:20;;;;;;;3.60;3.30;;;;;;;;;;5090660;28;21086;-75
2022/08/09 08:26:47;;;;;;;3.80;3.40;;;;;;;;;;5091186;28;20815;-76
2022/08/09 08:29:18;;;;;;;4.10;3.90;;;;;;;;;;5090971;28;20444;-75
2022/08/09 08:31:45;;;;;;;3.67;3.47;;;;;;;;;;5090776;28;20923;-76
2022/08/09 08:34:12;;;;;;;3.50;3.30;;;;;;;;;;5090786;28;20942;-75
2022/08/09 08:36:39;;;;;;;3.83;3.53;;;;;;;;;;5091481;28;20444;-75
2022/08/09 08:39:07;;;;;;;3.53;3.33;;;;;;;;;;5091770;28;20472;-75
2022/08/09 08:41:36;;;;;;;4.00;3.23;;;;;;;;;;5091588;28;20444;-74
2022/08/09 08:44:03;;;;;;;3.33;3.07;;;;;;;;;;5091210;28;20471;-75
2022/08/09 08:46:31;;;;;;;4.03;3.50;;;;;;;;;;5091783;28;20455;-75
2022/08/09 08:48:59;;;;;;;3.70;3.40;;;;;;;;;;5091994;28;20435;-74
2022/08/09 08:51:26;;;;;;;3.83;3.40;;;;;;;;;;5091137;28;20488;-76
2022/08/09 08:53:53;;;;;;;3.87;3.50;;;;;;;;;;5091270;28;20439;-75
2022/08/09 08:56:21;;;;;;;3.67;3.37;;;;;;;;;;5091586;28;20443;-75
2022/08/09 08:58:49;;;;;;;3.73;3.43;;;;;;;;;;5091659;28;20533;-75
2022/08/09 09:01:17;;;;;;;3.40;3.20;;;;;;;;;;5091282;28;20439;-76
2022/08/09 09:03:44;;;;;;;3.10;2.90;;;;;;;;;;5091400;28;20504;-74
2022/08/09 09:06:13;;;;;;;3.90;3.50;;;;;;;;;;5091255;28;21215;-76
2022/08/09 09:08:41;;;;;;;3.33;3.00;;;;;;;;;;5091834;28;20451;-76
2022/08/09 09:11:08;;;;;;;4.20;2.93;;;;;;;;;;5076319;28;20440;-76
2022/08/09 09:13:38;;;;;;;3.70;3.10;;;;;;;;;;5070984;28;20502;-76
2022/08/09 09:16:05;;;;;;;3.23;2.93;;;;;;;;;;5071095;28;20503;-76
2022/08/09 09:18:32;;;;;;;8.50;2.60;;;;;;;;;;5070944;28;20477;-76
2022/08/09 09:21:00;;;;;;;2.93;2.73;;;;;;;;;;5071423;28;20757;-76
2022/08/09 09:23:41;;;;;;;2.80;2.70;;;;;;;;;;5071040;28;20486;-77
2022/08/09 09:26:08;;;;;;;3.60;2.73;;;;;;;;;;5071415;28;20547;-77
2022/08/09 09:28:36;;;;;;;2.83;2.63;;;;;;;;;;5071598;28;20441;-76
2022/08/09 09:31:04;;;;;;;3.17;2.97;;;;;;;;;;5071609;28;20490;-76
2022/08/09 09:33:33;;;;;;;2.80;2.60;;;;;;;;;;5070829;28;20952;-77
2022/08/09 09:36:01;;;;;;;2.60;2.30;;;;;;;;;;5070777;28;20496;-76
2022/08/09 09:38:39;;;;;;;3.50;2.83;;;;;;;;;;5071142;28;20472;-76
2022/08/09 09:41:07;;;;;;;2.77;2.57;;;;;;;;;;5071308;28;20436;-76
2022/08/09 09:43:34;;;;;;;2.70;2.60;;;;;;;;;;5070645;28;20467;-75
2022/08/09 09:46:02;;;;;;;2.43;2.33;;;;;;;;;;5070541;28;20514;-75
2022/08/09 09:48:30;;;;;;;5.77;2.33;;;;;;;;;;5070141;28;20445;-75
2022/08/09 09:50:57;;;;;;;3.53;2.40;;;;;;;;;;5070921;28;20451;-75
2022/08/09 09:53:25;;;;;;;3.63;2.93;;;;;;;;;;5070534;28;20437;-74
2022/08/09 09:55:56;;;;;;;2.50;2.30;;;;;;;;;;5070777;28;20456;-74
2022/08/09 09:58:23;;;;;;;3.30;2.47;;;;;;;;;;5070585;28;20471;-75
2022/08/09 10:00:51;;;;;;;3.10;2.43;;;;;;;;;;5070392;28;20447;-75
2022/08/09 10:03:37;;;;;;;2.80;2.10;;;;;;;;;;5072895;28;20456;-75
2022/08/09 10:06:04;;;;;;;2.50;2.30;;;;;;;;;;5074153;28;20988;-74
2022/08/09 10:08:31;;;;;;;2.20;2.10;;;;;;;;;;5074270;28;20444;-74
2022/08/09 10:10:58;;;;;;;2.57;2.47;;;;;;;;;;5096645;28;20447;-75
2022/08/09 10:13:37;;;;;;;4.63;2.50;;;;;;;;;;5113802;28;20435;-74
2022/08/09 10:16:04;;;;;;;2.57;2.37;;;;;;;;;;5096486;28;20509;-76
2022/08/09 10:18:32;;;;;;;2.70;2.50;;;;;;;;;;5094203;28;20471;-76
2022/08/09 10:21:06;;;;;;;7.37;2.10;;;;;;;;;;5094182;28;20447;-75
2022/08/09 10:23:33;;;;;;;2.87;2.57;;;;;;;;;;5093893;28;20440;-75
2022/08/09 10:26:01;;;;;;;3.17;2.97;;;;;;;;;;5093786;28;20455;-76
2022/08/09 10:28:29;;;;;;;2.20;2.10;;;;;;;;;;5094271;28;20432;-75
2022/08/09 10:30:56;;;;;;;5.20;2.30;;;;;;;;;;5094432;28;20497;-75
2022/08/09 10:33:24;;;;;;;2.60;2.50;;;;;;;;;;5098203;28;20444;-74
2022/08/09 10:35:52;;;;;;;2.57;2.20;;;;;;;;;;5099637;28;20440;-74
2022/08/09 10:38:19;;;;;;;2.40;2.30;;;;;;;;;;5097617;28;20986;-75
2022/08/09 10:40:47;;;;;;;2.20;2.10;;;;;;;;;;5097425;28;20497;-75
2022/08/09 10:43:14;;;;;;;2.17;1.97;;;;;;;;;;5093840;28;20450;-74
2022/08/09 10:45:42;;;;;;;2.00;1.90;;;;;;;;;;5093644;28;20516;-75
2022/08/09 10:48:11;;;;;;;2.83;2.60;;;;;;;;;;5093680;28;21006;-75
2022/08/09 10:53:43;;;;;;;4.80;2.60;;;;;;;;;;5093729;28;20790;-74
2022/08/09 10:56:17;;;;;;;1.90;1.80;;;;;;;;;;5097076;28;20555;-75
2022/08/09 10:58:45;;;;;;;3.67;2.20;;;;;;;;;;5100732;28;20484;-75
2022/08/09 11:01:42;;;;;;;2.10;2.00;;;;;;;;;;5095736;28;20443;-76
2022/08/09 11:04:13;;;;;;;2.07;1.97;;;;;;;;;;5030342;28;20450;-75
2022/08/09 11:06:41;;;;;;;3.87;2.30;;;;;;;;;;5080749;28;20463;-75
2022/08/09 11:09:10;;;;;;;1.93;1.83;;;;;;;;;;5093343;28;20497;-75
2022/08/09 11:11:56;;;;;;;2.83;2.63;;;;;;;;;;5074283;28;20440;-75
2022/08/09 11:14:30;;;;;;;3.10;1.90;;;;;;;;;;5072607;28;20531;-75
2022/08/09 11:16:57;;;;;;;9.40;1.97;;;;;;;;;;5073064;28;20519;-75
2022/08/09 11:19:43;;;;;;;2.60;2.40;;;;;;;;;;5072848;28;20858;-75
2022/08/09 11:22:10;;;;;;;1.97;1.87;;;;;;;;;;5072772;28;20436;-75
2022/08/09 11:24:52;;;;;;;1.90;1.80;;;;;;;;;;5076816;28;20522;-75
2022/08/09 11:27:30;;;;;;;2.30;2.20;;;;;;;;;;5080353;28;20441;-75
2022/08/09 11:29:57;;;;;;;4.20;2.27;;;;;;;;;;5080512;28;20504;-76
2022/08/09 11:32:44;;;;;;;1.57;1.40;;;;;;;;;;5085784;28;20432;-75
2022/08/09 11:35:14;;;;;;;1.90;1.80;;;;;;;;;;5088020;28;20487;-75
2022/08/09 11:37:42;;;;;;;2.03;1.93;;;;;;;;;;5083045;28;20437;-76
2022/08/09 11:40:10;;;;;;;3.00;2.13;;;;;;;;;;5083199;28;20498;-75
2022/08/09 11:42:40;;;;;;;2.80;1.80;;;;;;;;;;5083615;28;20463;-75
2022/08/09 11:45:18;;;;;;;2.03;1.93;;;;;;;;;;5076353;28;20543;-75
2022/08/09 11:47:45;;;;;;;2.23;1.73;;;;;;;;;;5073407;28;20528;-75
2022/08/09 11:50:13;;;;;;;2.20;2.00;;;;;;;;;;5072879;28;20575;-75
2022/08/09 11:52:55;;;;;;;1.67;1.60;;;;;;;;;;5072369;28;20799;-76
2022/08/09 11:55:32;;;;;;;2.20;2.10;;;;;;;;;;5072340;28;20463;-75
2022/08/09 11:58:01;;;;;;;3.10;2.07;;;;;;;;;;5072601;28;20444;-77
2022/08/09 12:00:29;;;;;;;2.53;1.87;;;;;;;;;;5072028;28;20529;-75
2022/08/09 12:02:56;;;;;;;1.70;1.57;;;;;;;;;;5071782;28;20482;-75
2022/08/09 12:05:30;;;;;;;1.67;1.67;;;;;;;;;;5071651;28;20505;-75
2022/08/09 12:07:57;;;;;;;5.67;2.00;;;;;;;;;;5071849;28;20512;-76
2022/08/09 12:10:24;;;;;;;2.13;2.03;;;;;;;;;;5080525;28;20439;-75
2022/08/09 12:12:52;;;;;;;1.97;1.87;;;;;;;;;;5091700;28;20628;-75
2022/08/09 12:15:23;;;;;;;2.57;2.00;;;;;;;;;;5091859;28;20963;-75
2022/08/09 12:17:50;;;;;;;1.70;1.60;;;;;;;;;;5092013;28;20638;-76
2022/08/09 12:20:18;;;;;;;4.70;1.93;;;;;;;;;;5092183;28;20474;-75
2022/08/09 12:22:45;;;;;;;1.70;1.60;;;;;;;;;;5092958;28;20496;-76
2022/08/09 12:25:13;;;;;;;2.90;1.70;;;;;;;;;;5092281;28;20517;-75
2022/08/09 12:27:40;;;;;;;2.60;2.00;;;;;;;;;;5092543;28;20531;-75
2022/08/09 12:30:08;;;;;;;3.83;2.40;;;;;;;;;;5093353;28;20440;-76
2022/08/09 12:32:36;;;;;;;2.13;1.73;;;;;;;;;;5093632;28;20440;-75
2022/08/09 12:35:04;;;;;;;4.83;1.93;;;;;;;;;;5091502;28;20493;-76
2022/08/09 12:37:32;;;;;;;1.83;1.73;;;;;;;;;;5093468;28;20523;-76
2022/08/09 12:40:04;;;;;;;6.50;1.90;;;;;;;;;;5094359;28;20566;-75
2022/08/09 12:42:31;;;;;;;2.40;2.20;;;;;;;;;;5095433;28;20443;-75
2022/08/09 12:44:58;;;;;;;2.47;2.03;;;;;;;;;;5101912;28;20464;-75
2022/08/09 12:47:25;;;;;;;2.23;2.13;;;;;;;;;;5093833;28;20443;-76
2022/08/09 12:52:39;;;;;;;4.10;1.80;;;;;;;;;;5091332;28;20988;-74
2022/08/09 12:55:08;;;;;;;3.27;1.87;;;;;;;;;;5091633;28;20517;-76
2022/08/09 12:57:36;;;;;;;2.00;1.90;;;;;;;;;;5091409;28;20513;-76
2022/08/09 13:00:11;;;;;;;1.73;1.63;;;;;;;;;;5091277;28;20475;-76
2022/08/09 13:02:47;;;;;;;2.43;1.60;;;;;;;;;;5091314;28;20534;-75
2022/08/09 13:05:16;;;;;;;2.70;1.67;;;;;;;;;;5091149;28;20459;-75
2022/08/09 13:07:43;;;;;;;2.23;1.80;;;;;;;;;;5091796;28;20440;-75
2022/08/09 13:10:10;;;;;;;2.00;1.90;;;;;;;;;;5085321;28;21010;-76
2022/08/09 13:12:47;;;;;;;1.83;1.73;;;;;;;;;;5070817;28;20486;-75
2022/08/09 13:15:14;;;;;;;3.50;2.00;;;;;;;;;;5070879;28;20999;-75
2022/08/09 13:17:41;;;;;;;1.80;1.70;;;;;;;;;;5071325;28;20497;-75
2022/08/09 13:20:10;;;;;;;2.17;1.30;;;;;;;;;;5078382;28;20480;-74
2022/08/09 13:22:48;;;;;;;3.70;1.60;;;;;;;;;;5084152;28;20509;-74
2022/08/09 13:25:15;;;;;;;1.93;1.83;;;;;;;;;;5074233;28;20460;-75
2022/08/09 13:27:43;;;;;;;1.87;1.70;;;;;;;;;;5071249;28;20444;-75
2022/08/09 13:30:11;;;;;;;1.90;1.80;;;;;;;;;;5071252;28;20464;-74
2022/08/09 13:32:45;;;;;;;3.90;1.77;;;;;;;;;;5070853;28;20440;-75
2022/08/09 13:35:13;;;;;;;4.93;1.50;;;;;;;;;;5070976;28;20491;-75
2022/08/09 13:37:41;;;;;;;2.17;1.87;;;;;;;;;;5072518;28;20448;-75
2022/08/09 13:40:09;;;;;;;1.60;1.50;;;;;;;;;;5075314;28;20483;-75
2022/08/09 13:42:36;;;;;;;2.00;1.90;;;;;;;;;;5079831;28;20510;-74
2022/08/09 13:45:04;;;;;;;3.73;3.53;;;;;;;;;;5082774;28;20471;-75
2022/08/09 13:47:31;;;;;;;1.47;1.43;;;;;;;;;;5077417;28;20440;-77
2022/08/09 13:49:59;;;;;;;1.50;1.40;;;;;;;;;;5074313;28;20523;-75
2022/08/09 13:52:26;;;;;;;4.07;1.80;;;;;;;;;;5074669;28;20850;-75
2022/08/09 13:54:54;;;;;;;1.67;1.57;;;;;;;;;;5074375;28;20837;-75
2022/08/09 13:57:21;;;;;;;1.77;1.67;;;;;;;;;;5074468;28;20444;-75
2022/08/09 13:59:48;;;;;;;3.80;1.77;;;;;;;;;;5074293;28;20483;-74
2022/08/09 14:02:15;;;;;;;2.03;1.93;;;;;;;;;;5074300;28;20451;-75
2022/08/09 14:04:42;;;;;;;2.20;1.67;;;;;;;;;;5074826;28;20886;-74
2022/08/09 14:07:10;;;;;;;2.30;1.40;;;;;;;;;;5074726;28;20916;-74
2022/08/09 14:09:37;;;;;;;1.57;1.47;;;;;;;;;;5076490;28;20440;-75
2022/08/09 14:12:05;;;;;;;1.80;1.50;;;;;;;;;;5094511;28;20444;-75
2022/08/09 14:14:32;;;;;;;1.40;1.40;;;;;;;;;;5094460;28;20463;-76
2022/08/09 14:16:59;;;;;;;1.80;1.70;;;;;;;;;;5094392;28;20443;-75
2022/08/09 14:19:26;;;;;;;2.20;2.00;;;;;;;;;;5094371;28;20532;-76
2022/08/09 14:21:53;;;;;;;1.70;1.57;;;;;;;;;;5094482;28;20497;-76
2022/08/09 14:24:21;;;;;;;2.23;1.90;;;;;;;;;;5093950;28;21001;-76
2022/08/09 14:26:48;;;;;;;1.60;1.50;;;;;;;;;;5094183;28;20485;-76
2022/08/09 14:29:18;;;;;;;3.30;2.00;;;;;;;;;;5094114;28;20436;-76
2022/08/09 14:31:45;;;;;;;1.60;1.60;;;;;;;;;;5093938;28;20447;-75
2022/08/09 14:34:12;;;;;;;2.13;1.87;;;;;;;;;;5093783;28;20484;-75
2022/08/09 14:36:39;;;;;;;1.73;1.63;;;;;;;;;;5094561;28;20439;-75
2022/08/09 14:39:07;;;;;;;1.83;1.40;;;;;;;;;;5094039;28;20439;-75
2022/08/09 14:41:34;;;;;;;1.70;1.60;;;;;;;;;;5094319;28;20560;-76
2022/08/09 14:44:01;;;;;;;1.53;1.53;;;;;;;;;;5093268;28;20581;-75
2022/08/09 14:46:29;;;;;;;2.30;2.20;;;;;;;;;;5093662;28;20439;-76
2022/08/09 14:48:56;;;;;;;2.00;1.40;;;;;;;;;;5093607;28;20447;-74
2022/08/09 14:51:23;;;;;;;2.83;1.30;;;;;;;;;;5094106;28;20847;-75
2022/08/09 14:53:50;;;;;;;1.47;1.33;;;;;;;;;;5093773;28;20520;-75
2022/08/09 14:56:17;;;;;;;1.73;1.63;;;;;;;;;;5093740;28;20994;-74